Route Details

Aircraft Information
Group: European Fleet
Types: A30F, B738
Route Data
Distance: 612nm
Duration: 0h 00m
Origin METAR: EDDK 260220Z AUTO 06003KT CAVOK 10/10 Q1017 NOSIG
Dest. METAR: LEBL 260200Z 34003KT 310V010 CAVOK 15/13 Q1017 NOSIG
Freight Data
(for May 26, 2024)
Load Factor:
42%
Manifested Cargo: 30,051lbs
Financial History
Total Freight: 137,683lbs
Average Load: 0lbs/flt
Fuel Used: 44,281lbs
Avg. Fuel Used: 0lbs/flt
Fuel Expense: $23,213
Avg. Fuel Expense: $0
Avg. Fuel Cost: $0/lbs
Total Gross Income: $316,671
Pilot Pay: $538
Total Expenses: $73,139
Total Revenue: $218,501
Average Revenue: $0

Capitol Logistics 111




EDDK
Cologne Bonn Airport
Cologne, DE
LEBL
Barcelona International Airport
Barcelona, ES